Time;durP1;ratioP1;P1;durP2;ratioP2;P2;SDS_P1;SDS_P2;PMS_P1;PMS_P2;Temp;Humidity;BMP_temperature;BMP_pressure;BME280_temperature;BME280_humidity;BME280_pressure;Samples;Min_cycle;Max_cycle;Signal;HPM_P1;HPM_P2
2021/11/29 00:00:17;;;;;;;78.72;36.65;;;;;;;0.92;87.01;98683.71;1730041;82;21045;-75
2021/11/29 00:02:48;;;;;;;66.85;35.78;;;;;;;0.92;87.01;98682.40;1742588;81;21066;-75
2021/11/29 00:05:17;;;;;;;78.37;43.28;;;;;;;0.92;87.04;98682.40;1764291;81;21050;-75
2021/11/29 00:07:43;;;;;;;69.53;35.13;;;;;;;0.91;87.06;98681.60;1764772;81;21006;-75
2021/11/29 00:10:09;;;;;;;66.62;33.75;;;;;;;0.94;87.06;98683.09;1764557;81;20994;-75
2021/11/29 00:12:35;;;;;;;65.97;32.65;;;;;;;0.97;87.07;98682.78;1764434;81;20958;-75
2021/11/29 00:15:01;;;;;;;67.35;33.58;;;;;;;0.96;87.09;98686.38;1734226;82;21064;-75
2021/11/29 00:17:27;;;;;;;64.80;34.85;;;;;;;0.94;87.06;98686.55;1764284;81;21480;-76
2021/11/29 00:19:53;;;;;;;69.17;32.33;;;;;;;0.93;87.09;98684.88;1734092;82;20891;-75
2021/11/29 00:22:19;;;;;;;77.15;38.15;;;;;;;0.95;87.11;98687.38;1764328;81;20946;-74
2021/11/29 00:24:45;;;;;;;62.88;33.80;;;;;;;0.96;87.11;98682.44;1732470;82;20905;-75
2021/11/29 00:27:11;;;;;;;59.35;32.55;;;;;;;0.95;87.12;98687.38;1762957;81;21168;-75
2021/11/29 00:29:37;;;;;;;78.02;41.88;;;;;;;0.94;87.14;98693.59;1762100;81;21396;-75
2021/11/29 00:32:04;;;;;;;69.27;36.85;;;;;;;0.96;87.17;98692.94;1750260;81;20985;-75
2021/11/29 00:34:30;;;;;;;68.28;34.65;;;;;;;0.96;87.17;98691.63;1733331;82;21821;-75
2021/11/29 00:36:56;;;;;;;62.98;32.88;;;;;;;0.97;87.18;98699.36;1733673;82;20986;-75
2021/11/29 00:39:22;;;;;;;66.53;34.00;;;;;;;0.98;87.19;98704.13;1734193;82;21046;-75
2021/11/29 00:41:48;;;;;;;59.38;32.05;;;;;;;0.98;87.18;98701.50;1733877;82;20970;-75
2021/11/29 00:44:15;;;;;;;56.70;29.32;;;;;;;1.00;87.18;98704.78;1733969;82;21060;-75
2021/11/29 00:46:41;;;;;;;55.73;28.85;;;;;;;1.03;87.22;98712.35;1734235;82;21070;-74
2021/11/29 00:49:07;;;;;;;53.20;28.23;;;;;;;1.01;87.22;98713.00;1780082;80;20891;-75
2021/11/29 00:51:33;;;;;;;59.00;30.17;;;;;;;1.00;87.21;98719.22;1793381;80;21193;-74
2021/11/29 00:53:59;;;;;;;58.05;30.95;;;;;;;1.00;87.24;98721.36;1758483;80;20953;-75
2021/11/29 00:56:25;;;;;;;60.30;32.00;;;;;;;1.03;87.25;98721.53;1722045;83;20980;-74
2021/11/29 00:58:51;;;;;;;61.35;31.10;;;;;;;1.04;87.25;98722.37;1720904;83;20847;-74
2021/11/29 01:01:17;;;;;;;65.72;32.83;;;;;;;1.05;87.26;98725.34;1719979;81;21018;-75
2021/11/29 01:03:43;;;;;;;57.10;30.80;;;;;;;1.07;87.28;98724.69;1725484;83;21134;-74
2021/11/29 01:06:09;;;;;;;71.15;35.95;;;;;;;1.07;87.31;98728.14;1701892;83;21085;-74
2021/11/29 01:08:35;;;;;;;67.42;33.28;;;;;;;1.08;87.31;98730.28;1714092;83;20992;-74
2021/11/29 01:11:01;;;;;;;56.35;30.92;;;;;;;1.09;87.31;98733.25;1715411;83;21000;-74
2021/11/29 01:13:27;;;;;;;59.38;31.25;;;;;;;1.10;87.33;98734.88;1715839;83;21063;-74
2021/11/29 01:15:53;;;;;;;60.75;30.75;;;;;;;1.08;87.34;98732.42;1724219;83;21756;-74
2021/11/29 01:18:19;;;;;;;70.52;34.83;;;;;;;1.08;87.34;98727.17;1724368;83;20868;-74
2021/11/29 01:20:45;;;;;;;67.62;33.05;;;;;;;1.09;87.34;98730.11;1729337;83;21600;-74
2021/11/29 01:23:13;;;;;;;67.45;31.85;;;;;;;1.10;87.35;98722.58;1680537;84;21047;-74
2021/11/29 01:25:40;;;;;;;55.58;28.60;;;;;;;1.10;87.36;98723.89;1729697;83;21024;-74
2021/11/29 01:28:06;;;;;;;70.22;32.50;;;;;;;1.08;87.36;98724.55;1679976;85;21529;-74
2021/11/29 01:30:32;;;;;;;60.58;29.90;;;;;;;1.09;87.39;98726.17;1729394;83;20855;-74
2021/11/29 01:32:58;;;;;;;56.65;28.17;;;;;;;1.07;87.39;98724.20;1680091;85;21077;-74
2021/11/29 01:35:24;;;;;;;53.68;27.95;;;;;;;1.07;87.39;98726.83;1729295;83;21576;-74
2021/11/29 01:37:50;;;;;;;61.55;29.30;;;;;;;1.05;87.39;98726.16;1679847;84;21085;-74
2021/11/29 01:40:16;;;;;;;57.03;29.30;;;;;;;1.05;87.40;98730.10;1729530;82;21101;-74
2021/11/29 01:43:09;;;;;;;56.83;28.40;;;;;;;1.07;87.43;98729.94;1729583;83;21206;-74
2021/11/29 01:45:41;;;;;;;66.87;31.30;;;;;;;1.06;87.42;98730.42;1679792;84;21017;-74
2021/11/29 01:48:08;;;;;;;61.35;30.12;;;;;;;1.03;87.43;98729.41;1729395;81;20998;-74
2021/11/29 01:50:34;;;;;;;63.38;29.77;;;;;;;1.04;87.45;98727.61;1729507;81;20998;-74
2021/11/29 01:53:00;;;;;;;66.65;32.35;;;;;;;1.02;87.46;98725.16;1679882;85;21860;-74
2021/11/29 01:55:26;;;;;;;59.42;30.50;;;;;;;1.01;87.47;98727.44;1762268;80;20962;-74
2021/11/29 01:57:52;;;;;;;69.25;32.20;;;;;;;0.99;87.46;98730.20;1765339;81;20903;-74
2021/11/29 02:00:24;;;;;;;63.90;32.60;;;;;;;0.97;87.47;98722.98;1765474;81;21540;-74
2021/11/29 02:02:52;;;;;;;61.23;30.12;;;;;;;0.95;87.47;98728.05;1749012;81;20990;-74
2021/11/29 02:05:18;;;;;;;66.70;31.33;;;;;;;0.94;87.49;98728.53;1756554;80;21153;-74
2021/11/29 02:07:44;;;;;;;68.70;33.53;;;;;;;0.91;87.50;98726.21;1755049;80;21057;-74
2021/11/29 02:10:10;;;;;;;64.35;32.33;;;;;;;0.91;87.51;98728.83;1735807;80;20903;-74
2021/11/29 02:12:36;;;;;;;62.25;31.37;;;;;;;0.90;87.53;98718.48;1786259;80;20879;-74
2021/11/29 02:15:04;;;;;;;70.78;32.73;;;;;;;0.89;87.51;98726.00;1763957;81;20971;-74
2021/11/29 02:17:30;;;;;;;68.80;32.25;;;;;;;0.88;87.54;98723.06;1786664;80;21128;-74
2021/11/29 02:19:56;;;;;;;77.40;37.80;;;;;;;0.86;87.52;98728.45;1771746;80;21001;-74
2021/11/29 02:22:22;;;;;;;76.72;34.45;;;;;;;0.84;87.54;98729.58;1731392;82;20968;-74
2021/11/29 02:24:48;;;;;;;66.97;32.10;;;;;;;0.83;87.54;98721.36;1731727;82;20961;-74
2021/11/29 02:27:14;;;;;;;79.85;35.40;;;;;;;0.81;87.54;98727.25;1731345;82;20889;-74
2021/11/29 02:29:41;;;;;;;61.77;29.55;;;;;;;0.79;87.55;98726.56;1731620;82;21700;-73
2021/11/29 02:32:07;;;;;;;68.90;32.55;;;;;;;0.77;87.56;98728.52;1731487;82;20981;-74
2021/11/29 02:34:33;;;;;;;69.17;32.63;;;;;;;0.73;87.56;98728.48;1731363;82;21513;-74
2021/11/29 02:37:04;;;;;;;69.87;34.23;;;;;;;0.70;87.57;98731.41;1731677;82;21083;-74
2021/11/29 02:39:30;;;;;;;74.17;35.08;;;;;;;0.66;87.58;98728.25;1731825;82;21470;-74
2021/11/29 02:41:59;;;;;;;72.32;33.38;;;;;;;0.66;87.59;98727.42;1731782;82;21170;-74
2021/11/29 02:44:25;;;;;;;74.50;34.07;;;;;;;0.64;87.58;98735.91;1731932;82;20993;-74
2021/11/29 02:46:51;;;;;;;71.33;33.80;;;;;;;0.64;87.60;98722.80;1731653;82;21047;-74
2021/11/29 02:49:17;;;;;;;65.60;33.45;;;;;;;0.61;87.62;98729.17;1731610;82;20996;-74
2021/11/29 02:51:47;;;;;;;73.55;34.50;;;;;;;0.60;87.62;98735.89;1731676;82;21598;-74
2021/11/29 02:54:22;;;;;;;74.22;34.27;;;;;;;0.58;87.61;98739.12;1728782;82;21745;-74
2021/11/29 02:56:51;;;;;;;74.80;35.43;;;;;;;0.58;87.63;98739.12;1721881;83;20988;-74
2021/11/29 02:59:23;;;;;;;79.53;35.73;;;;;;;0.56;87.63;98740.61;1720911;82;21027;-74
2021/11/29 03:01:55;;;;;;;74.30;35.17;;;;;;;0.58;87.65;98737.82;1700884;83;21027;-74
2021/11/29 03:04:22;;;;;;;71.92;35.33;;;;;;;0.57;87.66;98736.16;1726923;83;21579;-74
2021/11/29 03:06:49;;;;;;;66.22;31.37;;;;;;;0.57;87.66;98740.92;1726813;83;21487;-74
2021/11/29 03:09:15;;;;;;;68.90;34.23;;;;;;;0.57;87.66;98740.09;1697639;84;21066;-74
2021/11/29 03:11:41;;;;;;;74.05;34.13;;;;;;;0.55;87.65;98740.26;1696111;84;21032;-74
2021/11/29 03:14:07;;;;;;;68.97;32.73;;;;;;;0.56;87.68;98741.09;1726739;83;21034;-74
2021/11/29 03:16:33;;;;;;;64.95;31.48;;;;;;;0.54;87.67;98743.02;1726991;83;20959;-74
2021/11/29 03:18:59;;;;;;;65.75;31.90;;;;;;;0.54;87.68;98743.02;1697243;84;21067;-74
2021/11/29 03:21:26;;;;;;;69.70;32.38;;;;;;;0.54;87.71;98740.39;1726776;83;21115;-74
2021/11/29 03:23:55;;;;;;;65.85;29.70;;;;;;;0.55;87.69;98744.67;1726709;83;21010;-74
2021/11/29 03:26:23;;;;;;;62.17;30.50;;;;;;;0.55;87.71;98740.74;1697917;84;21021;-73
2021/11/29 03:28:53;;;;;;;64.90;30.70;;;;;;;0.54;87.71;98739.08;1726703;83;21082;-74
2021/11/29 03:31:18;;;;;;;;;;;;;;;0.55;87.72;98748.61;1729538;82;21536;-74
2021/11/29 03:33:45;;;;;;;65.50;30.35;;;;;;;0.54;87.73;98743.02;1726473;83;20168;-74
2021/11/29 03:36:11;;;;;;;63.20;30.40;;;;;;;0.52;87.74;98735.80;1726825;83;21034;-74
2021/11/29 03:38:37;;;;;;;61.50;29.23;;;;;;;0.53;87.75;98746.13;1726739;83;21590;-74
2021/11/29 03:41:03;;;;;;;61.73;30.00;;;;;;;0.55;87.75;98748.61;1726726;83;20888;-74
2021/11/29 03:43:29;;;;;;;61.58;30.15;;;;;;;0.54;87.78;98744.33;1726920;83;21116;-74
2021/11/29 03:45:55;;;;;;;52.67;26.45;;;;;;;0.55;87.76;98753.85;1726698;83;20950;-74
2021/11/29 03:48:21;;;;;;;60.38;28.77;;;;;;;0.55;87.76;98747.30;1726848;83;21010;-74
2021/11/29 03:50:47;;;;;;;55.98;28.02;;;;;;;0.55;87.79;98749.92;1726731;82;20959;-74
2021/11/29 03:53:13;;;;;;;54.33;25.65;;;;;;;0.56;87.79;98752.89;1726641;81;21045;-74
2021/11/29 03:55:39;;;;;;;57.67;26.00;;;;;;;0.56;87.80;98751.58;1735459;81;20950;-74
2021/11/29 03:58:06;;;;;;;61.77;27.85;;;;;;;0.55;87.79;98758.62;1764892;80;20991;-74
2021/11/29 04:00:31;;;;;;;53.80;29.02;;;;;;;0.52;87.80;98752.84;1765569;80;21007;-74
2021/11/29 04:02:57;;;;;;;59.53;27.60;;;;;;;0.54;87.80;98767.93;1765149;81;21538;-74
2021/11/29 04:05:23;;;;;;;78.87;32.63;;;;;;;0.53;87.82;98764.98;1722761;83;20986;-74
2021/11/29 04:07:50;;;;;;;62.62;28.77;;;;;;;0.50;87.83;98769.53;1711247;83;21493;-74
2021/11/29 04:10:16;;;;;;;52.38;27.00;;;;;;;0.48;87.83;98765.42;1699682;84;21064;-74
2021/11/29 04:12:42;;;;;;;65.47;30.50;;;;;;;0.49;87.84;98773.13;1699756;84;21049;-74
2021/11/29 04:15:09;;;;;;;65.70;30.95;;;;;;;0.50;87.86;98768.70;1699765;84;20905;-74
2021/11/29 04:17:35;;;;;;;65.37;31.10;;;;;;;0.49;87.86;98780.98;1699928;84;21529;-74
2021/11/29 04:20:02;;;;;;;67.20;30.57;;;;;;;0.49;87.88;98780.98;1699504;84;21142;-74
2021/11/29 04:22:28;;;;;;;64.47;31.17;;;;;;;0.47;87.88;98779.49;1712017;83;21054;-74
2021/11/29 04:24:57;;;;;;;57.20;28.80;;;;;;;0.44;87.88;98782.41;1729277;83;21010;-73
2021/11/29 04:27:22;;;;;;;63.83;30.17;;;;;;;0.42;87.90;98781.23;1729142;83;21516;-74
2021/11/29 04:29:49;;;;;;;60.63;28.45;;;;;;;0.41;87.89;98780.91;1726706;83;20872;-74
2021/11/29 04:32:15;;;;;;;61.77;29.35;;;;;;;0.42;87.88;98783.05;1728768;83;21190;-74
2021/11/29 04:34:41;;;;;;;74.72;31.95;;;;;;;0.41;87.90;98782.70;1728341;83;21070;-74
2021/11/29 04:37:07;;;;;;;61.05;28.42;;;;;;;0.41;87.90;98780.91;1728647;83;20919;-74
2021/11/29 04:39:34;;;;;;;54.77;26.68;;;;;;;0.39;87.90;98784.62;1729101;82;20904;-74
2021/11/29 04:42:01;;;;;;;57.98;28.02;;;;;;;0.38;87.90;98786.94;1728755;83;21026;-74
2021/11/29 04:44:28;;;;;;;58.80;28.07;;;;;;;0.36;87.91;98787.06;1727934;83;21163;-74
2021/11/29 04:46:54;;;;;;;62.38;30.80;;;;;;;0.37;87.90;98790.03;1728854;82;21059;-74
2021/11/29 04:49:20;;;;;;;66.67;30.20;;;;;;;0.39;87.93;98786.77;1728223;82;21476;-74
2021/11/29 04:51:46;;;;;;;64.00;28.20;;;;;;;0.41;87.94;98790.57;1728696;83;21019;-74
2021/11/29 04:54:12;;;;;;;61.42;26.33;;;;;;;0.40;87.95;98792.36;1727968;82;20881;-74
2021/11/29 04:56:38;;;;;;;57.27;25.90;;;;;;;0.40;87.95;98791.53;1719916;83;21766;-74
2021/11/29 04:59:04;;;;;;;58.73;26.62;;;;;;;0.39;87.96;98798.57;1719806;83;21053;-74
2021/11/29 05:01:30;;;;;;;57.62;26.82;;;;;;;0.39;87.97;98797.26;1691564;82;21062;-74
2021/11/29 05:03:56;;;;;;;56.05;27.45;;;;;;;0.36;87.97;98798.03;1678202;85;20911;-74
2021/11/29 05:06:22;;;;;;;63.25;28.23;;;;;;;0.34;87.97;98798.20;1678262;84;21516;-74
2021/11/29 05:08:49;;;;;;;65.42;29.85;;;;;;;0.32;87.97;98801.91;1678618;85;21145;-74
2021/11/29 05:11:14;;;;;;;60.60;28.05;;;;;;;0.30;87.98;98803.38;1678347;85;21063;-74
2021/11/29 05:13:40;;;;;;;63.13;27.30;;;;;;;0.31;87.98;98795.87;1678857;83;21069;-74
2021/11/29 05:16:06;;;;;;;61.80;28.27;;;;;;;0.30;87.98;98794.69;1678734;85;20978;-74
2021/11/29 05:18:32;;;;;;;73.20;29.12;;;;;;;0.29;88.00;98792.55;1681413;83;20915;-74
2021/11/29 05:20:58;;;;;;;70.08;29.27;;;;;;;0.28;88.01;98798.75;1678637;83;21855;-74
2021/11/29 05:23:24;;;;;;;56.33;26.60;;;;;;;0.27;88.03;98799.74;1678512;85;20892;-74
2021/11/29 05:25:50;;;;;;;59.93;26.25;;;;;;;0.26;88.04;98802.02;1678493;85;21649;-74
2021/11/29 05:28:16;;;;;;;55.70;24.75;;;;;;;0.23;88.03;98802.79;1678378;85;20971;-74
2021/11/29 05:30:42;;;;;;;55.23;25.62;;;;;;;0.18;88.01;98801.90;1678750;85;20923;-74
2021/11/29 05:33:08;;;;;;;58.83;25.70;;;;;;;0.17;88.04;98811.23;1680454;83;21645;-74
2021/11/29 05:35:34;;;;;;;58.13;24.95;;;;;;;0.15;88.05;98811.84;1719717;83;21038;-74
2021/11/29 05:38:00;;;;;;;57.17;27.07;;;;;;;0.13;88.03;98818.55;1703387;83;21013;-74
2021/11/29 05:40:26;;;;;;;59.05;26.48;;;;;;;0.14;88.06;98817.56;1678542;84;21022;-74
2021/11/29 05:42:53;;;;;;;66.55;27.45;;;;;;;0.12;88.05;98818.20;1678839;85;21052;-74
2021/11/29 05:45:19;;;;;;;65.35;27.73;;;;;;;0.10;88.06;98817.53;1678645;85;21510;-74
2021/11/29 05:47:45;;;;;;;60.43;26.07;;;;;;;0.07;88.06;98829.59;1678742;85;20896;-74
2021/11/29 05:50:12;;;;;;;55.25;24.60;;;;;;;0.03;88.07;98828.24;1678513;85;21747;-74
2021/11/29 05:52:39;;;;;;;63.75;29.02;;;;;;;-0.02;88.07;98831.76;1678946;83;20995;-74
2021/11/29 05:55:07;;;;;;;54.93;24.27;;;;;;;-0.10;88.06;98825.08;1686185;84;21018;-74
2021/11/29 05:57:33;;;;;;;56.88;24.40;;;;;;;-0.13;88.09;98827.98;1724093;83;21909;-74
2021/11/29 05:59:59;;;;;;;60.90;28.05;;;;;;;-0.20;88.10;98829.04;1691007;84;20916;-74
2021/11/29 06:02:25;;;;;;;58.38;25.72;;;;;;;-0.22;88.08;98829.67;1723828;83;20993;-74
2021/11/29 06:04:51;;;;;;;59.00;24.65;;;;;;;-0.26;88.09;98830.09;1691236;84;20963;-74
2021/11/29 06:07:17;;;;;;;59.45;26.10;;;;;;;-0.32;88.08;98839.34;1752903;81;20947;-73
2021/11/29 06:09:43;;;;;;;59.40;26.48;;;;;;;-0.36;88.09;98838.44;1760123;81;21126;-74
2021/11/29 06:12:09;;;;;;;54.63;25.15;;;;;;;-0.40;88.10;98838.38;1744952;81;21003;-74
2021/11/29 06:14:35;;;;;;;59.95;24.87;;;;;;;-0.38;88.09;98844.28;1760231;81;21465;-74
2021/11/29 06:17:01;;;;;;;77.82;30.15;;;;;;;-0.41;88.08;98847.19;1758012;81;21082;-74
2021/11/29 06:19:28;;;;;;;73.52;28.60;;;;;;;-0.41;88.08;98852.42;1760154;81;21046;-74
2021/11/29 06:21:54;;;;;;;57.17;24.67;;;;;;;-0.42;88.10;98851.59;1760015;81;21690;-74
2021/11/29 06:24:19;;;;;;;65.67;28.77;;;;;;;-0.41;88.11;98853.73;1743129;81;20950;-74
2021/11/29 06:26:45;;;;;;;53.30;25.60;;;;;;;-0.39;88.13;98859.67;1732154;81;20883;-74
2021/11/29 06:29:11;;;;;;;50.67;25.72;;;;;;;-0.40;88.14;98861.94;1760129;81;20868;-74
2021/11/29 06:31:38;;;;;;;66.42;32.15;;;;;;;-0.41;88.13;98862.89;1760231;81;21078;-74
2021/11/29 06:34:04;;;;;;;51.92;23.95;;;;;;;-0.40;88.14;98871.10;1759769;81;21038;-74
2021/11/29 06:36:30;;;;;;;79.58;36.83;;;;;;;-0.40;88.15;98871.10;1729626;81;20996;-74
2021/11/29 06:38:58;;;;;;;56.92;27.35;;;;;;;-0.41;88.15;98868.13;1740488;81;20967;-74
2021/11/29 06:41:24;;;;;;;47.30;22.90;;;;;;;-0.41;88.17;98874.20;1751164;81;21049;-74
2021/11/29 06:43:51;;;;;;;44.85;22.45;;;;;;;-0.47;88.17;98877.38;1742939;82;20942;-74
2021/11/29 06:46:17;;;;;;;63.87;32.25;;;;;;;-0.50;88.17;98872.42;1742655;82;21076;-74
2021/11/29 06:48:43;;;;;;;66.82;33.40;;;;;;;-0.51;88.18;98876.83;1742527;82;21545;-74
2021/11/29 06:51:09;;;;;;;89.65;40.58;;;;;;;-0.52;88.17;98883.02;1742726;82;21073;-74
2021/11/29 06:53:35;;;;;;;60.45;27.73;;;;;;;-0.53;88.18;98882.66;1757969;81;21030;-75
2021/11/29 06:56:02;;;;;;;62.15;26.75;;;;;;;-0.57;88.18;98882.62;1755934;80;21740;-74
2021/11/29 06:58:28;;;;;;;74.27;29.98;;;;;;;-0.61;88.17;98889.09;1756847;81;21208;-74
2021/11/29 07:00:54;;;;;;;75.57;34.30;;;;;;;-0.64;88.18;98890.67;1756923;81;21026;-74
2021/11/29 07:03:21;;;;;;;62.45;27.15;;;;;;;-0.64;88.16;98889.36;1756560;81;21000;-74
2021/11/29 07:05:48;;;;;;;55.60;25.90;;;;;;;-0.66;88.15;98891.27;1754427;81;21015;-75
2021/11/29 07:08:15;;;;;;;55.75;26.48;;;;;;;-0.68;88.14;98897.14;1756648;81;21412;-74
2021/11/29 07:10:41;;;;;;;57.27;26.05;;;;;;;-0.66;88.16;98898.30;1755584;81;21074;-74
2021/11/29 07:13:09;;;;;;;50.15;24.35;;;;;;;-0.64;88.16;98910.30;1756636;81;21586;-75
2021/11/29 07:15:35;;;;;;;47.60;24.50;;;;;;;-0.65;88.15;98911.26;1756779;81;21007;-74
2021/11/29 07:18:02;;;;;;;56.65;22.87;;;;;;;-0.65;88.14;98915.66;1756675;81;21607;-74
2021/11/29 07:20:28;;;;;;;50.43;23.62;;;;;;;-0.64;88.14;98912.92;1743689;81;21472;-74
2021/11/29 07:22:54;;;;;;;59.20;25.82;;;;;;;-0.64;88.14;98923.39;1726806;83;21050;-74
2021/11/29 07:25:20;;;;;;;47.65;23.55;;;;;;;-0.63;88.16;98922.41;1726658;83;21467;-74
2021/11/29 07:27:46;;;;;;;47.17;24.52;;;;;;;-0.63;88.15;98919.79;1727560;81;21064;-74
2021/11/29 07:30:14;;;;;;;52.15;27.90;;;;;;;-0.62;88.16;98924.55;1741194;81;20939;-74
2021/11/29 07:32:40;;;;;;;66.50;28.50;;;;;;;-0.62;88.14;98925.38;1733958;81;20965;-74
2021/11/29 07:35:06;;;;;;;72.05;34.55;;;;;;;-0.60;88.14;98929.19;1726876;83;21040;-74
2021/11/29 07:37:32;;;;;;;70.52;35.88;;;;;;;-0.59;88.12;98929.03;1726879;82;21016;-74
2021/11/29 07:39:58;;;;;;;75.92;38.98;;;;;;;-0.57;88.13;98939.38;1727583;81;20905;-74
2021/11/29 07:42:24;;;;;;;54.50;27.70;;;;;;;-0.56;88.12;98932.68;1727431;81;21483;-74
2021/11/29 07:44:50;;;;;;;65.15;29.32;;;;;;;-0.54;88.13;98932.08;1726813;83;20919;-74
2021/11/29 07:47:16;;;;;;;52.85;25.10;;;;;;;-0.52;88.14;98937.16;1726555;83;21183;-74
2021/11/29 07:49:42;;;;;;;52.95;23.57;;;;;;;-0.51;88.11;98937.04;1726809;83;21740;-74
2021/11/29 07:52:08;;;;;;;49.77;22.70;;;;;;;-0.50;88.11;98930.02;1726762;83;20903;-74
2021/11/29 07:54:35;;;;;;;49.95;22.75;;;;;;;-0.51;88.11;98931.80;1726800;83;21387;-74
2021/11/29 07:57:02;;;;;;;47.78;23.40;;;;;;;-0.52;88.09;98939.78;1722114;81;21039;-74
2021/11/29 07:59:28;;;;;;;59.98;29.52;;;;;;;-0.53;88.10;98937.64;1695293;84;21915;-74
2021/11/29 08:01:54;;;;;;;75.25;32.67;;;;;;;-0.52;88.10;98938.00;1723219;81;20931;-75
2021/11/29 08:04:20;;;;;;;63.38;28.62;;;;;;;-0.48;88.10;98945.58;1720762;83;20908;-75
2021/11/29 08:06:46;;;;;;;49.70;23.85;;;;;;;-0.44;88.11;98943.86;1744581;81;21510;-75
2021/11/29 08:09:12;;;;;;;69.10;29.95;;;;;;;-0.45;88.10;98948.75;1752913;80;21003;-75
2021/11/29 08:11:39;;;;;;;70.17;32.25;;;;;;;-0.47;88.07;98955.09;1756896;81;21073;-75
2021/11/29 08:14:05;;;;;;;134.35;51.73;;;;;;;-0.46;88.08;98947.59;1758110;81;20977;-75
2021/11/29 08:16:31;;;;;;;80.32;37.13;;;;;;;-0.44;88.08;98950.89;1759601;81;20878;-75
2021/11/29 08:18:57;;;;;;;81.72;37.75;;;;;;;-0.38;88.07;98958.19;1746005;81;21521;-75
2021/11/29 08:21:23;;;;;;;85.17;41.05;;;;;;;-0.35;88.08;98959.25;1755470;80;20896;-75
2021/11/29 08:23:49;;;;;;;50.88;23.40;;;;;;;-0.36;88.06;98957.11;1754646;81;21147;-75
2021/11/29 08:26:15;;;;;;;43.60;21.95;;;;;;;-0.37;88.07;98962.48;1724330;81;27436;-75
2021/11/29 08:28:41;;;;;;;40.83;20.37;;;;;;;-0.39;88.05;98963.11;1740588;81;20931;-75
2021/11/29 08:31:07;;;;;;;53.53;24.93;;;;;;;-0.43;88.03;98965.64;1736839;81;20858;-75
2021/11/29 08:33:33;;;;;;;70.25;31.15;;;;;;;-0.47;88.02;98967.70;1722317;83;20932;-75
2021/11/29 08:35:59;;;;;;;67.90;29.75;;;;;;;-0.45;88.01;98971.48;1756921;81;21130;-75
2021/11/29 08:38:25;;;;;;;63.42;29.72;;;;;;;-0.43;88.01;98976.12;1738655;81;20888;-75
2021/11/29 08:40:51;;;;;;;42.83;20.90;;;;;;;-0.42;87.97;98978.59;1727096;81;21042;-75
2021/11/29 08:43:18;;;;;;;50.30;27.80;;;;;;;-0.39;87.96;98973.58;1744786;81;21038;-75
2021/11/29 08:45:46;;;;;;;91.20;40.17;;;;;;;-0.38;87.95;98972.59;1745701;81;21139;-75
2021/11/29 08:48:13;;;;;;;110.88;46.25;;;;;;;-0.32;87.95;98972.91;1741831;81;21197;-75
2021/11/29 08:50:41;;;;;;;56.83;26.45;;;;;;;-0.28;87.92;98982.12;1740703;81;20911;-75
2021/11/29 08:53:10;;;;;;;32.73;17.42;;;;;;;-0.25;87.90;98978.42;1735546;81;21036;-75
2021/11/29 08:55:36;;;;;;;58.08;26.45;;;;;;;-0.22;87.91;98989.45;1742618;81;21584;-75
2021/11/29 08:58:06;;;;;;;49.15;24.87;;;;;;;-0.22;87.88;98988.63;1719014;83;21131;-75
2021/11/29 09:00:33;;;;;;;43.65;22.58;;;;;;;-0.20;87.89;98982.75;1713664;82;21129;-74
2021/11/29 09:03:01;;;;;;;46.45;23.18;;;;;;;-0.18;87.88;98981.67;1718182;82;21087;-76
2021/11/29 09:05:26;;;;;;;39.63;19.82;;;;;;;-0.17;87.85;98989.02;1717516;82;21023;-75
2021/11/29 09:07:52;;;;;;;47.80;21.57;;;;;;;-0.16;87.84;98985.45;1713775;82;21019;-76
2021/11/29 09:10:19;;;;;;;41.53;20.45;;;;;;;-0.16;87.82;98990.69;1721261;82;21061;-76
2021/11/29 09:12:45;;;;;;;43.73;21.62;;;;;;;-0.14;87.82;98988.27;1720837;82;21988;-75
2021/11/29 09:15:13;;;;;;;68.37;27.42;;;;;;;-0.16;87.78;98995.92;1718213;82;20926;-75
2021/11/29 09:17:39;;;;;;;49.13;25.23;;;;;;;-0.16;87.78;98988.06;1722922;81;21007;-71
2021/11/29 09:20:07;;;;;;;40.58;21.60;;;;;;;-0.12;87.75;98994.69;1719096;82;20897;-71
2021/11/29 09:22:33;;;;;;;47.17;23.77;;;;;;;-0.09;87.73;98994.41;1721265;82;21031;-71
2021/11/29 09:25:00;;;;;;;46.30;22.45;;;;;;;-0.02;87.73;99000.76;1720850;82;21706;-71
2021/11/29 09:27:30;;;;;;;42.60;20.82;;;;;;;0.03;87.72;98999.88;1717983;82;21031;-71
2021/11/29 09:29:56;;;;;;;71.15;27.77;;;;;;;0.10;87.73;98986.56;1747335;81;21506;-72
2021/11/29 09:32:23;;;;;;;94.83;34.15;;;;;;;0.13;87.69;98982.84;1739692;81;20958;-72
2021/11/29 09:34:49;;;;;;;99.45;42.58;;;;;;;0.15;87.67;98985.65;1735764;81;21389;-71
2021/11/29 09:37:18;;;;;;;99.35;43.13;;;;;;;0.24;87.67;98986.14;1747281;81;21626;-71
2021/11/29 09:39:44;;;;;;;58.50;23.22;;;;;;;0.28;87.63;98979.63;1747806;81;21012;-71
2021/11/29 09:42:11;;;;;;;48.90;21.85;;;;;;;0.32;87.63;98985.42;1739579;81;21072;-71
2021/11/29 09:44:37;;;;;;;64.15;27.70;;;;;;;0.38;87.61;98981.78;1722749;81;21502;-71
2021/11/29 09:47:04;;;;;;;61.25;27.50;;;;;;;0.47;87.60;98982.23;1724348;81;20913;-71
2021/11/29 09:49:30;;;;;;;68.70;29.85;;;;;;;0.51;87.59;98985.41;1717570;82;21145;-71
2021/11/29 09:51:58;;;;;;;62.10;29.85;;;;;;;0.57;87.56;98982.20;1723207;82;37773;-71
2021/11/29 09:54:24;;;;;;;58.15;24.75;;;;;;;0.61;87.55;98980.13;1715304;82;21028;-71
2021/11/29 09:56:53;;;;;;;55.85;27.13;;;;;;;0.67;87.54;98984.83;1742540;81;20982;-71
2021/11/29 09:59:23;;;;;;;62.93;29.20;;;;;;;0.72;87.51;98977.34;1725720;82;21022;-72
2021/11/29 10:01:46;;;;;;;56.00;26.37;;;;;;;0.76;87.47;98978.72;1730431;81;21058;-71
2021/11/29 10:04:12;;;;;;;56.20;25.85;;;;;;;0.80;87.45;98982.72;1735957;81;22184;-71
2021/11/29 10:06:38;;;;;;;55.45;24.40;;;;;;;0.82;87.42;98982.07;1744251;81;21511;-72
2021/11/29 10:09:09;;;;;;;41.13;22.37;;;;;;;0.82;87.42;98986.01;1741183;81;21013;-72
2021/11/29 10:11:35;;;;;;;59.23;25.68;;;;;;;0.87;87.38;98986.42;1703206;83;21062;-72
2021/11/29 10:14:05;;;;;;;43.25;21.52;;;;;;;0.90;87.35;98982.19;1723291;82;20967;-72
2021/11/29 10:16:43;;;;;;;44.27;21.12;;;;;;;0.92;87.32;98988.11;1745605;81;21014;-72
2021/11/29 10:19:27;;;;;;;43.42;21.20;;;;;;;0.93;87.28;98991.08;1725179;82;21040;-72
2021/11/29 10:21:53;;;;;;;43.38;21.25;;;;;;;0.94;87.23;98986.19;1717449;82;21915;-72
2021/11/29 10:24:19;;;;;;;70.25;27.20;;;;;;;0.97;87.22;98980.64;1719593;82;20986;-72
2021/11/29 10:26:52;;;;;;;98.30;38.83;;;;;;;0.98;87.20;98980.52;1721676;82;21214;-72
2021/11/29 10:29:18;;;;;;;159.67;50.33;;;;;;;0.99;87.14;98982.63;1727894;82;21066;-72
2021/11/29 10:31:47;;;;;;;84.40;32.08;;;;;;;1.02;87.12;98980.22;1752528;80;21025;-73
2021/11/29 10:34:19;;;;;;;54.38;22.45;;;;;;;1.00;87.08;98979.87;1717539;82;21004;-70
2021/11/29 10:36:52;;;;;;;54.30;26.93;;;;;;;1.06;87.05;98976.31;1750829;80;21058;-70
2021/11/29 10:39:32;;;;;;;41.95;18.00;;;;;;;1.03;87.01;98982.69;1744775;80;21138;-70
2021/11/29 10:42:02;;;;;;;55.85;23.45;;;;;;;1.07;86.99;98981.91;1723636;81;21020;-68
2021/11/29 10:44:31;;;;;;;35.13;15.85;;;;;;;1.13;86.96;98988.72;1720302;81;21027;-70
2021/11/29 10:46:59;;;;;;;46.85;20.65;;;;;;;1.12;86.92;98980.52;1723398;82;21480;-69
2021/11/29 10:49:29;;;;;;;61.18;25.15;;;;;;;1.14;86.88;98978.56;1724462;82;21074;-70
2021/11/29 10:51:57;;;;;;;46.50;20.48;;;;;;;1.14;86.87;98983.81;1717951;82;21482;-70
2021/11/29 10:54:30;;;;;;;53.08;23.18;;;;;;;1.14;86.83;98983.81;1721102;82;21075;-69
2021/11/29 10:56:56;;;;;;;60.20;24.85;;;;;;;1.08;86.79;98983.09;1693536;83;21103;-69
2021/11/29 10:59:27;;;;;;;53.30;23.27;;;;;;;1.06;86.76;98985.02;1717785;83;21514;-70
2021/11/29 11:02:00;;;;;;;56.53;25.30;;;;;;;1.07;86.73;98984.05;1725205;82;21066;-70
2021/11/29 11:04:31;;;;;;;50.08;22.73;;;;;;;1.13;86.70;98983.95;1721370;81;21094;-70
2021/11/29 11:07:04;;;;;;;51.20;24.37;;;;;;;1.18;86.66;98992.23;1724243;81;22286;-70
2021/11/29 11:09:33;;;;;;;60.55;24.57;;;;;;;1.20;86.63;98995.05;1717590;82;21010;-70
2021/11/29 11:12:06;;;;;;;48.53;25.17;;;;;;;1.21;86.59;98993.25;1727318;82;21127;-70
2021/11/29 11:14:40;;;;;;;41.40;22.25;;;;;;;1.22;86.56;98995.73;1727671;81;21049;-70
2021/11/29 11:17:08;;;;;;;44.03;21.07;;;;;;;1.24;86.56;98996.89;1713358;82;21192;-70
2021/11/29 11:19:44;;;;;;;47.13;19.98;;;;;;;1.26;86.50;98993.17;1718486;83;21030;-71